createdAt,value
2022-08-22T00:01:20.573Z,16.38
2022-08-22T00:10:25.448Z,16.33
2022-08-22T00:22:17.261Z,16.15
2022-08-22T00:24:56.002Z,16.04
2022-08-22T00:27:27.305Z,16.04
2022-08-22T00:32:57.052Z,16.12
2022-08-22T00:35:30.022Z,16.06
2022-08-22T00:38:04.427Z,16.07
2022-08-22T00:46:35.729Z,15.96
2022-08-22T01:01:07.733Z,15.78
2022-08-22T01:15:42.668Z,15.76
2022-08-22T01:18:17.384Z,15.75
2022-08-22T01:42:12.633Z,15.56
2022-08-22T01:50:58.613Z,15.58
2022-08-22T03:05:28.902Z,15.22
2022-08-22T07:33:43.991Z,16.41
2022-08-22T07:36:22.600Z,16.45
2022-08-22T07:39:02.398Z,16.48
2022-08-22T07:41:59.655Z,16.50
2022-08-22T07:44:32.929Z,16.72
2022-08-22T07:47:09.170Z,16.81
2022-08-22T07:50:04.901Z,16.89
2022-08-22T07:52:38.321Z,16.93
2022-08-22T07:55:16.417Z,17.07
2022-08-22T07:57:46.039Z,17.16
2022-08-22T08:00:17.052Z,17.32
2022-08-22T08:02:50.843Z,17.44
2022-08-22T08:05:19.712Z,17.36
2022-08-22T08:07:47.900Z,17.19
2022-08-22T08:10:23.985Z,17.17
2022-08-22T08:13:01.974Z,17.48
2022-08-22T08:15:31.867Z,17.48
2022-08-22T08:18:03.780Z,17.64
2022-08-22T08:20:30.963Z,17.51
2022-08-22T08:22:58.345Z,17.49
2022-08-22T08:25:29.862Z,17.77
2022-08-22T08:31:48.331Z,17.75
2022-08-22T08:34:24.399Z,17.82
2022-08-22T08:36:54.981Z,17.95
2022-08-22T08:39:48.547Z,17.95
2022-08-22T08:43:09.042Z,18.10
2022-08-22T08:54:21.155Z,18.48
2022-08-22T08:56:55.434Z,18.65
2022-08-22T08:59:28.150Z,18.72
2022-08-22T09:02:25.843Z,18.72
2022-08-22T09:05:29.513Z,18.87
2022-08-22T09:08:01.949Z,18.97
2022-08-22T09:10:50.814Z,18.51
2022-08-22T09:16:52.616Z,17.88
2022-08-22T09:19:43.717Z,17.97
2022-08-22T09:22:26.109Z,18.09
2022-08-22T09:25:09.261Z,18.10
2022-08-22T09:27:45.917Z,18.21
2022-08-22T09:30:15.558Z,18.39
2022-08-22T09:33:10.018Z,18.55
2022-08-22T09:36:12.213Z,18.44
2022-08-22T09:39:05.907Z,18.62
2022-08-22T09:41:41.597Z,18.98
2022-08-22T09:44:26.384Z,18.89
2022-08-22T09:47:08.983Z,18.99
2022-08-22T09:50:10.253Z,19.32
2022-08-22T09:55:51.443Z,19.35
2022-08-22T09:58:40.765Z,19.78
2022-08-22T10:01:53.441Z,19.72
2022-08-22T10:04:39.582Z,19.90
2022-08-22T10:07:26.861Z,19.73
2022-08-22T10:10:00.924Z,19.66
2022-08-22T10:12:36.280Z,19.35
2022-08-22T10:15:12.458Z,19.33
2022-08-22T10:17:57.430Z,19.22
2022-08-22T10:20:28.967Z,19.39
2022-08-22T10:23:21.683Z,19.33
2022-08-22T10:25:53.653Z,19.00
2022-08-22T10:28:39.513Z,18.68
2022-08-22T10:31:09.165Z,18.95
2022-08-22T10:34:11.146Z,18.79
2022-08-22T10:36:50.738Z,19.01
2022-08-22T10:39:23.313Z,18.84
2022-08-22T10:42:23.282Z,18.56
2022-08-22T10:45:08.376Z,18.62
2022-08-22T10:47:57.310Z,18.52
2022-08-22T10:50:31.803Z,18.16
2022-08-22T10:53:30.989Z,18.28
2022-08-22T10:56:06.331Z,18.35
2022-08-22T10:58:40.821Z,18.68
2022-08-22T11:01:37.645Z,19.01
2022-08-22T11:04:05.612Z,19.47
2022-08-22T11:06:56.210Z,19.26
2022-08-22T11:09:40.565Z,19.67
2022-08-22T11:12:26.633Z,19.79
2022-08-22T11:15:10.080Z,19.69
2022-08-22T11:17:53.859Z,19.89
2022-08-22T11:20:37.222Z,19.46
2022-08-22T11:23:12.456Z,18.87
2022-08-22T11:25:53.903Z,19.14
2022-08-22T11:28:23.395Z,18.96
2022-08-22T11:31:23.959Z,18.56
2022-08-22T11:33:55.550Z,18.68
2022-08-22T11:36:31.467Z,18.73
2022-08-22T11:39:06.564Z,18.63
2022-08-22T11:41:54.046Z,18.42
2022-08-22T11:47:26.556Z,17.81
2022-08-22T11:50:03.812Z,17.70
2022-08-22T11:55:47.054Z,17.93
2022-08-22T11:58:29.623Z,18.06
2022-08-22T12:01:14.915Z,17.90
2022-08-22T12:07:02.420Z,18.06
2022-08-22T12:09:41.596Z,18.36
2022-08-22T12:12:48.300Z,18.43
2022-08-22T12:15:40.412Z,18.65
2022-08-22T12:18:35.097Z,18.77
2022-08-22T12:21:38.524Z,19.25
2022-08-22T12:24:19.269Z,19.59
2022-08-22T12:27:02.278Z,19.85
2022-08-22T12:29:56.345Z,19.69
2022-08-22T12:32:45.838Z,19.66
2022-08-22T12:35:15.582Z,19.97
2022-08-22T12:37:54.307Z,19.91
2022-08-22T12:40:28.496Z,19.59
2022-08-22T12:43:12.698Z,19.76
2022-08-22T12:46:12.941Z,19.40
2022-08-22T12:48:55.178Z,19.57
2022-08-22T12:51:34.460Z,19.54
2022-08-22T12:54:16.004Z,19.89
2022-08-22T12:57:01.322Z,19.72
2022-08-22T12:59:31.930Z,19.43
2022-08-22T13:02:12.835Z,19.03
2022-08-22T13:04:46.161Z,18.98
2022-08-22T13:07:37.485Z,18.65
2022-08-22T13:10:17.373Z,18.55
2022-08-22T13:12:47.021Z,18.60
2022-08-22T13:15:25.784Z,18.58
2022-08-22T13:17:53.242Z,18.39
2022-08-22T13:20:32.428Z,18.48
2022-08-22T13:23:00.906Z,18.53
2022-08-22T13:25:30.058Z,18.49
2022-08-22T13:27:59.961Z,18.29
2022-08-22T13:30:31.985Z,18.32
2022-08-22T13:33:04.399Z,18.38
2022-08-22T13:35:44.834Z,18.20
2022-08-22T13:38:26.554Z,18.08
2022-08-22T13:40:56.058Z,18.12
2022-08-22T13:43:27.679Z,18.10
2022-08-22T13:45:59.226Z,17.99
2022-08-22T13:48:49.657Z,18.17
2022-08-22T13:51:40.215Z,18.07
2022-08-22T13:54:15.763Z,18.24
2022-08-22T13:56:53.095Z,18.12
2022-08-22T13:59:49.548Z,18.06
2022-08-22T14:02:30.889Z,18.22
2022-08-22T14:05:04.895Z,18.38
2022-08-22T14:07:53.020Z,18.70
2022-08-22T14:10:26.868Z,18.84
2022-08-22T14:12:57.438Z,18.84
2022-08-22T14:15:45.824Z,19.13
2022-08-22T14:18:18.708Z,19.36
2022-08-22T14:20:47.658Z,19.70
2022-08-22T14:23:29.170Z,19.55
2022-08-22T14:25:56.358Z,19.31
2022-08-22T14:28:30.831Z,19.05
2022-08-22T14:31:02.522Z,19.04
2022-08-22T14:33:51.796Z,18.82
2022-08-22T14:36:45.783Z,18.91
2022-08-22T14:39:31.083Z,18.76
2022-08-22T14:42:12.917Z,18.68
2022-08-22T14:44:57.048Z,18.46
2022-08-22T14:47:54.397Z,18.29
2022-08-22T14:50:36.577Z,18.23
2022-08-22T14:53:25.312Z,18.14
2022-08-22T14:56:15.568Z,18.10
2022-08-22T14:58:53.928Z,18.08
2022-08-22T15:01:25.281Z,18.00
2022-08-22T15:04:01.658Z,17.94
2022-08-22T15:06:35.866Z,17.89
2022-08-22T15:09:28.724Z,17.75
2022-08-22T15:11:57.693Z,17.73
2022-08-22T15:14:42.549Z,17.75
2022-08-22T15:17:10.885Z,17.55
2022-08-22T15:19:41.076Z,17.69
2022-08-22T15:22:21.838Z,17.75
2022-08-22T15:25:02.941Z,17.40
2022-08-22T15:27:31.774Z,17.35
2022-08-22T15:30:07.789Z,17.40
2022-08-22T15:32:49.009Z,17.25
2022-08-22T15:35:30.073Z,17.36
2022-08-22T15:37:58.320Z,17.25
2022-08-22T15:40:45.852Z,17.34
2022-08-22T15:43:21.716Z,17.18
2022-08-22T15:45:51.956Z,17.23
2022-08-22T15:48:30.110Z,17.25
2022-08-22T15:51:09.472Z,17.34
2022-08-22T15:53:45.562Z,17.32
2022-08-22T15:56:12.146Z,17.47
2022-08-22T15:58:48.946Z,17.62
2022-08-22T16:01:20.671Z,17.74
2022-08-22T16:04:12.457Z,17.70
2022-08-22T16:06:55.318Z,17.70
2022-08-22T16:09:44.467Z,17.59
2022-08-22T16:12:32.783Z,17.65
2022-08-22T16:15:01.286Z,17.55
2022-08-22T16:17:27.942Z,17.63
2022-08-22T16:20:15.811Z,17.58
2022-08-22T16:22:56.473Z,17.48
2022-08-22T16:25:45.250Z,17.54
2022-08-22T16:28:54.359Z,17.45
2022-08-22T16:31:22.644Z,17.27
2022-08-22T16:33:49.479Z,17.36
2022-08-22T16:36:17.981Z,17.13
2022-08-22T16:38:48.585Z,17.25
2022-08-22T16:41:28.749Z,17.30
2022-08-22T16:44:21.139Z,17.24
2022-08-22T16:46:49.266Z,17.34
2022-08-22T16:49:31.022Z,17.26
2022-08-22T16:52:25.883Z,17.28
2022-08-22T16:54:53.797Z,17.28
2022-08-22T16:58:06.860Z,17.19
2022-08-22T17:00:36.998Z,17.09
2022-08-22T17:03:18.809Z,17.06
2022-08-22T17:06:10.970Z,17.13
2022-08-22T17:08:43.597Z,17.08
2022-08-22T17:11:42.382Z,17.09
2022-08-22T17:14:41.750Z,17.09
2022-08-22T17:17:19.653Z,16.90
2022-08-22T17:19:56.138Z,16.91
2022-08-22T17:25:59.593Z,16.81
2022-08-22T17:32:04.996Z,16.70
2022-08-22T17:35:02.817Z,16.79
2022-08-22T17:37:55.548Z,16.74
2022-08-22T17:40:30.166Z,16.62
2022-08-22T17:43:09.219Z,16.66
2022-08-22T17:45:45.742Z,16.67
2022-08-22T17:48:19.638Z,16.76
2022-08-22T17:50:51.304Z,16.77
2022-08-22T17:53:17.882Z,16.74
2022-08-22T17:58:54.838Z,16.52
2022-08-22T18:01:42.998Z,16.56
2022-08-22T18:04:17.690Z,16.52
2022-08-22T18:06:49.284Z,16.49
2022-08-22T18:09:38.808Z,16.47
2022-08-22T18:12:16.284Z,16.49
2022-08-22T18:14:59.834Z,16.37
2022-08-22T18:17:34.843Z,16.49
2022-08-22T18:20:11.918Z,16.33
2022-08-22T18:22:53.158Z,16.33
2022-08-22T18:25:19.765Z,16.45
2022-08-22T18:28:21.943Z,16.50
2022-08-22T18:30:59.771Z,16.57
2022-08-22T18:33:38.280Z,16.53
2022-08-22T18:36:22.732Z,16.53
2022-08-22T18:39:29.048Z,16.59
2022-08-22T18:42:23.398Z,16.53
2022-08-22T18:44:50.079Z,16.47
2022-08-22T18:47:20.407Z,16.55
2022-08-22T18:49:55.456Z,16.53
2022-08-22T18:52:34.599Z,16.56
2022-08-22T18:58:28.275Z,16.56
2022-08-22T19:00:57.945Z,16.53
2022-08-22T19:12:26.169Z,16.47
2022-08-22T19:18:16.939Z,16.59
2022-08-22T19:21:02.080Z,16.51
2022-08-22T19:23:35.918Z,16.42
2022-08-22T19:35:27.360Z,16.38
2022-08-22T19:38:02.831Z,16.37
2022-08-22T19:40:53.981Z,16.29
2022-08-22T19:43:42.088Z,16.41
2022-08-22T19:46:11.262Z,16.54
2022-08-22T19:48:44.697Z,16.50
2022-08-22T19:51:19.612Z,16.43
2022-08-22T19:53:57.662Z,16.34
2022-08-22T19:59:29.190Z,16.41
2022-08-22T20:05:17.458Z,16.45
2022-08-22T20:08:02.758Z,16.40
2022-08-22T20:13:36.248Z,16.42
2022-08-22T20:16:17.920Z,16.35
2022-08-22T20:19:08.580Z,16.39
2022-08-22T20:21:43.377Z,16.48
2022-08-22T20:24:15.553Z,16.40
2022-08-22T20:27:03.384Z,16.51
2022-08-22T20:29:34.534Z,16.37
2022-08-22T20:32:03.618Z,16.45
2022-08-22T20:34:33.970Z,16.38
2022-08-22T20:37:27.193Z,16.38
2022-08-22T20:39:59.164Z,16.47
2022-08-22T20:42:26.402Z,16.43
2022-08-22T20:44:54.365Z,16.47
2022-08-22T20:47:24.366Z,16.60
2022-08-22T20:50:04.825Z,16.49
2022-08-22T20:52:37.530Z,16.53
2022-08-22T20:55:07.135Z,16.58
2022-08-22T20:57:35.571Z,16.70
2022-08-22T21:03:12.159Z,16.41
2022-08-22T21:05:43.733Z,16.54
2022-08-22T21:14:24.814Z,16.40
2022-08-22T21:16:52.009Z,16.40
2022-08-22T21:19:23.626Z,16.32
2022-08-22T21:21:50.426Z,16.49
2022-08-22T21:24:17.169Z,16.52
2022-08-22T21:26:50.458Z,16.55
2022-08-22T21:29:17.026Z,16.63
2022-08-22T21:34:48.794Z,16.72
2022-08-22T21:40:15.798Z,16.59
2022-08-22T21:43:03.433Z,16.65
2022-08-22T21:45:41.503Z,16.55
2022-08-22T21:57:33.633Z,16.67
2022-08-22T22:00:00.445Z,16.74
2022-08-22T22:05:33.132Z,16.55
2022-08-22T22:07:59.949Z,16.69
2022-08-22T22:10:26.841Z,16.65
2022-08-22T22:12:55.407Z,16.60
2022-08-22T22:15:25.394Z,16.65
2022-08-22T22:17:52.263Z,16.67
2022-08-22T22:20:20.741Z,16.54
2022-08-22T22:22:47.555Z,16.55
2022-08-22T22:25:39.651Z,16.68
2022-08-22T22:28:05.008Z,16.65
2022-08-22T22:30:31.716Z,16.60
2022-08-22T22:32:58.322Z,16.48
2022-08-22T22:35:24.950Z,16.49
2022-08-22T22:37:51.864Z,16.50
2022-08-22T22:40:18.715Z,16.63
2022-08-22T22:42:45.401Z,16.54
2022-08-22T22:45:12.015Z,16.58
2022-08-22T22:47:38.793Z,16.54
2022-08-22T22:50:06.307Z,16.58
2022-08-22T22:52:33.036Z,16.50
2022-08-22T22:55:07.729Z,16.51
2022-08-22T22:57:42.459Z,16.46
2022-08-22T23:00:11.230Z,16.49
2022-08-22T23:02:37.863Z,16.45
2022-08-22T23:05:05.323Z,16.62
2022-08-22T23:07:33.881Z,16.68
2022-08-22T23:10:01.522Z,16.67
2022-08-22T23:12:29.068Z,16.60
2022-08-22T23:14:55.671Z,16.70
2022-08-22T23:17:22.301Z,16.57
2022-08-22T23:19:50.732Z,16.75
2022-08-22T23:22:17.609Z,16.76
2022-08-22T23:24:44.305Z,16.62
2022-08-22T23:29:59.887Z,16.61
2022-08-22T23:32:26.536Z,16.54
2022-08-22T23:34:53.595Z,16.30
2022-08-22T23:37:21.739Z,16.12
2022-08-22T23:39:49.108Z,16.04
2022-08-22T23:42:18.050Z,15.91
2022-08-22T23:45:03.856Z,15.81
2022-08-22T23:47:30.599Z,15.77
2022-08-22T23:49:57.174Z,15.66
2022-08-22T23:52:23.827Z,15.57
2022-08-22T23:54:54.575Z,15.53
2022-08-22T23:57:26.317Z,15.52
2022-08-22T23:59:57.820Z,15.53
